Time;durP1;ratioP1;P1;durP2;ratioP2;P2;SDS_P1;SDS_P2;PMS_P1;PMS_P2;Temp;Humidity;BMP_temperature;BMP_pressure;BME280_temperature;BME280_humidity;BME280_pressure;Samples;Min_cycle;Max_cycle;Signal;HPM_P1;HPM_P2
2022/11/20 00:01:20;;;;;;;26.45;10.88;;;;;;;;;;5014833;28;20487;-77
2022/11/20 00:03:45;;;;;;;19.85;8.30;;;;;;;;;;4997147;28;20021;-77
2022/11/20 00:06:13;;;;;;;23.10;9.75;;;;;;;;;;5014666;28;20029;-78
2022/11/20 00:08:39;;;;;;;19.23;9.30;;;;;;;;;;5014607;28;20109;-77
2022/11/20 00:11:09;;;;;;;22.30;9.65;;;;;;;;;;5015447;28;20451;-77
2022/11/20 00:13:35;;;;;;;20.55;9.43;;;;;;;;;;5014329;28;20029;-78
2022/11/20 00:16:02;;;;;;;19.50;8.07;;;;;;;;;;4997437;28;20549;-77
2022/11/20 00:18:28;;;;;;;20.25;9.20;;;;;;;;;;4996953;28;20022;-77
2022/11/20 00:20:59;;;;;;;19.60;8.68;;;;;;;;;;4997404;28;20028;-77
2022/11/20 00:23:25;;;;;;;17.02;8.63;;;;;;;;;;5014696;28;20029;-77
2022/11/20 00:25:50;;;;;;;19.65;8.43;;;;;;;;;;5014612;28;20029;-76
2022/11/20 00:28:15;;;;;;;20.63;9.52;;;;;;;;;;5014743;28;20057;-77
2022/11/20 00:30:40;;;;;;;19.83;7.97;;;;;;;;;;5014516;28;20391;-78
2022/11/20 00:33:06;;;;;;;18.25;8.27;;;;;;;;;;5014482;28;20079;-77
2022/11/20 00:35:31;;;;;;;20.00;9.38;;;;;;;;;;5013952;28;20040;-78
2022/11/20 00:37:56;;;;;;;18.08;7.85;;;;;;;;;;5013755;28;20396;-77
2022/11/20 00:40:21;;;;;;;23.25;8.80;;;;;;;;;;5014297;28;20084;-77
2022/11/20 00:42:47;;;;;;;19.08;8.13;;;;;;;;;;5013985;28;20452;-77
2022/11/20 00:45:12;;;;;;;22.98;9.15;;;;;;;;;;5013831;28;20036;-77
2022/11/20 00:47:37;;;;;;;17.67;8.02;;;;;;;;;;5014493;28;20514;-77
2022/11/20 00:50:03;;;;;;;20.42;8.45;;;;;;;;;;4996222;28;20024;-77
2022/11/20 00:52:28;;;;;;;18.40;8.02;;;;;;;;;;4996734;28;20014;-77
2022/11/20 00:54:53;;;;;;;25.67;9.10;;;;;;;;;;5013668;28;20036;-77
2022/11/20 00:57:19;;;;;;;21.38;9.48;;;;;;;;;;5013619;28;20040;-76
2022/11/20 00:59:44;;;;;;;18.52;8.30;;;;;;;;;;5014180;28;20049;-76
2022/11/20 01:02:09;;;;;;;21.27;9.45;;;;;;;;;;5013386;28;20026;-76
2022/11/20 01:04:34;;;;;;;16.65;7.72;;;;;;;;;;5013766;28;20032;-77
2022/11/20 01:07:00;;;;;;;18.50;7.35;;;;;;;;;;5014062;28;20030;-77
2022/11/20 01:09:25;;;;;;;22.17;8.85;;;;;;;;;;5013479;28;20403;-77
2022/11/20 01:11:50;;;;;;;19.13;9.48;;;;;;;;;;5013448;28;20018;-76
2022/11/20 01:14:19;;;;;;;18.50;8.80;;;;;;;;;;5013425;28;20028;-76
2022/11/20 01:16:48;;;;;;;24.48;10.57;;;;;;;;;;5013384;28;20022;-76
2022/11/20 01:19:16;;;;;;;23.98;9.32;;;;;;;;;;5013529;28;20056;-77
2022/11/20 01:21:42;;;;;;;21.98;9.68;;;;;;;;;;5013160;28;20030;-77
2022/11/20 01:24:12;;;;;;;20.00;9.02;;;;;;;;;;5013897;28;20471;-76
2022/11/20 01:26:39;;;;;;;17.35;8.07;;;;;;;;;;5013240;28;20034;-77
2022/11/20 01:29:06;;;;;;;22.88;9.07;;;;;;;;;;4995862;28;20033;-77
2022/11/20 01:31:36;;;;;;;20.40;8.90;;;;;;;;;;5013804;28;20026;-77
2022/11/20 01:34:04;;;;;;;20.40;8.50;;;;;;;;;;5014453;28;20120;-76
2022/11/20 01:36:32;;;;;;;18.38;8.35;;;;;;;;;;5013721;28;20549;-77
2022/11/20 01:39:00;;;;;;;20.60;8.52;;;;;;;;;;4996517;28;20077;-77
2022/11/20 01:44:14;;;;;;;20.48;8.80;;;;;;;;;;5013670;28;20557;-77
2022/11/20 01:46:47;;;;;;;23.75;9.75;;;;;;;;;;5013153;28;20108;-76
2022/11/20 01:49:21;;;;;;;23.10;9.40;;;;;;;;;;5013471;28;20030;-76
2022/11/20 01:51:52;;;;;;;17.98;8.45;;;;;;;;;;5014749;28;20026;-78
2022/11/20 01:54:27;;;;;;;20.92;9.18;;;;;;;;;;5013528;28;20562;-77
2022/11/20 01:56:58;;;;;;;19.20;8.98;;;;;;;;;;5013482;28;20124;-77
2022/11/20 01:59:25;;;;;;;18.30;8.73;;;;;;;;;;5013760;28;20453;-78
2022/11/20 02:01:51;;;;;;;16.90;8.35;;;;;;;;;;5014260;28;20033;-77
2022/11/20 02:04:16;;;;;;;17.63;8.20;;;;;;;;;;5017075;28;20403;-77
2022/11/20 02:06:49;;;;;;;16.90;8.20;;;;;;;;;;5017394;28;20057;-77
2022/11/20 02:09:15;;;;;;;19.95;8.75;;;;;;;;;;5016706;28;20113;-77
2022/11/20 02:11:40;;;;;;;19.17;8.57;;;;;;;;;;4999125;28;20100;-77
2022/11/20 02:14:06;;;;;;;20.23;8.55;;;;;;;;;;5016534;28;20508;-77
2022/11/20 02:16:46;;;;;;;14.90;7.93;;;;;;;;;;5016516;28;20112;-76
2022/11/20 02:19:31;;;;;;;21.98;7.88;;;;;;;;;;5016819;28;20026;-77
2022/11/20 02:22:28;;;;;;;16.70;7.50;;;;;;;;;;5016909;28;20169;-77
2022/11/20 02:24:54;;;;;;;17.80;7.50;;;;;;;;;;5005184;28;20126;-76
2022/11/20 02:27:20;;;;;;;16.67;7.75;;;;;;;;;;4999051;28;20026;-77
2022/11/20 02:29:56;;;;;;;20.38;7.72;;;;;;;;;;5016750;28;20062;-77
2022/11/20 02:32:25;;;;;;;15.63;6.85;;;;;;;;;;5016769;28;20105;-77
2022/11/20 02:34:50;;;;;;;15.40;7.18;;;;;;;;;;5016335;28;20026;-76
2022/11/20 02:37:17;;;;;;;18.33;7.88;;;;;;;;;;5016020;28;20029;-76
2022/11/20 02:39:45;;;;;;;15.23;7.28;;;;;;;;;;4998531;28;20113;-76
2022/11/20 02:42:11;;;;;;;16.13;8.02;;;;;;;;;;5015995;28;20438;-77
2022/11/20 02:44:36;;;;;;;17.27;7.03;;;;;;;;;;5015964;28;20072;-77
2022/11/20 02:47:01;;;;;;;14.68;6.90;;;;;;;;;;4998372;28;20036;-77
2022/11/20 02:49:27;;;;;;;15.15;7.45;;;;;;;;;;5015869;28;20480;-76
2022/11/20 02:51:52;;;;;;;20.23;8.32;;;;;;;;;;4998208;28;20479;-77
2022/11/20 02:54:17;;;;;;;18.25;7.32;;;;;;;;;;5016007;28;20026;-76
2022/11/20 02:56:43;;;;;;;16.08;7.78;;;;;;;;;;5016081;28;20028;-76
2022/11/20 02:59:09;;;;;;;16.45;7.00;;;;;;;;;;5015728;28;20101;-76
2022/11/20 03:01:34;;;;;;;16.10;7.18;;;;;;;;;;5015633;28;20030;-77
2022/11/20 03:03:59;;;;;;;17.23;7.18;;;;;;;;;;5016215;28;20072;-77
2022/11/20 03:06:24;;;;;;;18.40;7.60;;;;;;;;;;4998483;28;20098;-76
2022/11/20 03:08:50;;;;;;;24.75;7.47;;;;;;;;;;4998447;28;20364;-76
2022/11/20 03:11:15;;;;;;;14.13;6.13;;;;;;;;;;5016126;28;20026;-77
2022/11/20 03:13:40;;;;;;;13.80;6.35;;;;;;;;;;5015520;28;20020;-77
2022/11/20 03:16:07;;;;;;;18.67;7.95;;;;;;;;;;5015343;28;20025;-77
2022/11/20 03:18:33;;;;;;;19.80;7.80;;;;;;;;;;5015190;28;20049;-77
2022/11/20 03:20:59;;;;;;;18.27;8.18;;;;;;;;;;5015306;28;20022;-76
2022/11/20 03:23:24;;;;;;;20.92;9.10;;;;;;;;;;5015616;28;20018;-77
2022/11/20 03:25:49;;;;;;;19.08;8.32;;;;;;;;;;4998164;28;20026;-76
2022/11/20 03:28:15;;;;;;;16.73;7.97;;;;;;;;;;4997495;28;20026;-77
2022/11/20 03:30:40;;;;;;;22.20;7.93;;;;;;;;;;4998335;28;20109;-77
2022/11/20 03:33:06;;;;;;;18.08;8.20;;;;;;;;;;5015232;28;20017;-77
2022/11/20 03:35:31;;;;;;;18.25;7.90;;;;;;;;;;5014933;28;20558;-77
2022/11/20 03:37:57;;;;;;;22.10;8.48;;;;;;;;;;5014979;28;20049;-77
2022/11/20 03:40:22;;;;;;;21.38;7.97;;;;;;;;;;4997489;28;20419;-77
2022/11/20 03:42:47;;;;;;;17.63;7.68;;;;;;;;;;5014863;28;20017;-77
2022/11/20 03:45:15;;;;;;;17.50;7.60;;;;;;;;;;5014838;28;20152;-77
2022/11/20 03:47:41;;;;;;;17.50;7.28;;;;;;;;;;5014885;28;20079;-77
2022/11/20 03:50:08;;;;;;;18.10;7.32;;;;;;;;;;5014663;28;20495;-77
2022/11/20 03:52:33;;;;;;;23.77;6.95;;;;;;;;;;5014585;28;20022;-76
2022/11/20 03:54:58;;;;;;;14.65;6.97;;;;;;;;;;5014572;28;20080;-77
2022/11/20 03:57:23;;;;;;;14.35;7.03;;;;;;;;;;5014752;28;20025;-76
2022/11/20 03:59:49;;;;;;;12.93;6.40;;;;;;;;;;4997102;28;20415;-77
2022/11/20 04:02:14;;;;;;;10.25;4.65;;;;;;;;;;5014549;28;20061;-77
2022/11/20 04:04:39;;;;;;;11.40;5.88;;;;;;;;;;5014682;28;20026;-77
2022/11/20 04:07:05;;;;;;;12.98;5.93;;;;;;;;;;5014611;28;20029;-77
2022/11/20 04:09:30;;;;;;;16.33;6.15;;;;;;;;;;5014432;28;20076;-77
2022/11/20 04:11:55;;;;;;;13.95;6.15;;;;;;;;;;5014191;28;20017;-78
2022/11/20 04:14:20;;;;;;;13.93;6.53;;;;;;;;;;4996685;28;20036;-77
2022/11/20 04:16:46;;;;;;;14.45;6.05;;;;;;;;;;5014116;28;20064;-77
2022/11/20 04:19:13;;;;;;;13.45;6.63;;;;;;;;;;4996634;28;20096;-77
2022/11/20 04:21:39;;;;;;;9.90;5.30;;;;;;;;;;4996381;28;20136;-77
2022/11/20 04:24:06;;;;;;;15.35;5.80;;;;;;;;;;5014171;28;20538;-77
2022/11/20 04:26:32;;;;;;;17.05;6.28;;;;;;;;;;5013472;28;20032;-77
2022/11/20 04:28:58;;;;;;;14.40;6.38;;;;;;;;;;5014608;28;20022;-78
2022/11/20 04:31:26;;;;;;;13.07;6.22;;;;;;;;;;5013978;28;20025;-77
2022/11/20 04:33:51;;;;;;;11.88;5.68;;;;;;;;;;5014013;28;20034;-77
2022/11/20 04:36:24;;;;;;;14.95;7.00;;;;;;;;;;5014220;28;20025;-78
2022/11/20 04:38:54;;;;;;;14.02;6.20;;;;;;;;;;5014287;28;20395;-77
2022/11/20 04:41:21;;;;;;;16.25;5.82;;;;;;;;;;5014058;28;20080;-75
2022/11/20 04:43:51;;;;;;;13.50;6.07;;;;;;;;;;5013895;28;20384;-76
2022/11/20 04:46:18;;;;;;;10.00;5.78;;;;;;;;;;4996058;28;20133;-76
2022/11/20 04:48:44;;;;;;;13.35;5.97;;;;;;;;;;5013908;28;20022;-77
2022/11/20 04:51:09;;;;;;;12.05;5.63;;;;;;;;;;5013937;28;20032;-76
2022/11/20 04:53:35;;;;;;;13.60;6.20;;;;;;;;;;5014205;28;20022;-77
2022/11/20 04:56:05;;;;;;;13.55;6.15;;;;;;;;;;5013848;28;20026;-77
2022/11/20 04:58:30;;;;;;;11.90;5.45;;;;;;;;;;4995916;28;20124;-77
2022/11/20 05:01:03;;;;;;;12.82;5.82;;;;;;;;;;5013529;28;20084;-76
2022/11/20 05:03:28;;;;;;;10.40;5.15;;;;;;;;;;5013507;28;20475;-76
2022/11/20 05:05:53;;;;;;;10.90;5.80;;;;;;;;;;5013547;28;20029;-77
2022/11/20 05:08:18;;;;;;;8.70;4.10;;;;;;;;;;5013781;28;20028;-77
2022/11/20 05:10:44;;;;;;;13.18;5.47;;;;;;;;;;5013654;28;20018;-75
2022/11/20 05:13:09;;;;;;;15.35;6.20;;;;;;;;;;5013598;28;20076;-78
2022/11/20 05:15:34;;;;;;;13.07;6.28;;;;;;;;;;5013705;28;20375;-78
2022/11/20 05:18:00;;;;;;;13.82;6.28;;;;;;;;;;5013485;28;20025;-76
2022/11/20 05:20:25;;;;;;;14.23;6.03;;;;;;;;;;5013625;28;20490;-77
2022/11/20 05:22:50;;;;;;;11.82;5.68;;;;;;;;;;5013252;28;20030;-76
2022/11/20 05:25:15;;;;;;;10.80;5.57;;;;;;;;;;5013580;28;20391;-75
2022/11/20 05:27:41;;;;;;;14.93;6.18;;;;;;;;;;5013865;28;20030;-77
2022/11/20 05:30:07;;;;;;;17.80;8.10;;;;;;;;;;5013264;28;20026;-77
2022/11/20 05:32:32;;;;;;;14.52;6.28;;;;;;;;;;4995572;28;20075;-77
2022/11/20 05:34:57;;;;;;;16.05;6.43;;;;;;;;;;5013631;28;20109;-75
2022/11/20 05:37:23;;;;;;;14.90;7.43;;;;;;;;;;5015257;28;20029;-76
2022/11/20 05:39:49;;;;;;;14.35;6.82;;;;;;;;;;5017376;28;20128;-76
2022/11/20 05:42:32;;;;;;;13.30;6.35;;;;;;;;;;5016994;28;20022;-77
2022/11/20 05:44:58;;;;;;;17.67;8.18;;;;;;;;;;5017464;28;20026;-77
2022/11/20 05:47:23;;;;;;;14.68;6.65;;;;;;;;;;4999435;28;20510;-77
2022/11/20 05:49:49;;;;;;;17.73;7.78;;;;;;;;;;5016913;28;20079;-76
2022/11/20 05:52:14;;;;;;;19.63;6.72;;;;;;;;;;5016922;28;20029;-76
2022/11/20 05:54:39;;;;;;;16.85;7.63;;;;;;;;;;5017097;28;20030;-77
2022/11/20 05:57:04;;;;;;;18.10;6.88;;;;;;;;;;5016786;28;20033;-76
2022/11/20 05:59:30;;;;;;;17.23;7.60;;;;;;;;;;5016916;28;20030;-77
2022/11/20 06:01:55;;;;;;;16.10;7.68;;;;;;;;;;5016711;28;20534;-77
2022/11/20 06:04:20;;;;;;;14.63;7.15;;;;;;;;;;5017157;28;20032;-76
2022/11/20 06:06:45;;;;;;;14.60;6.72;;;;;;;;;;5016927;28;20030;-77
2022/11/20 06:09:11;;;;;;;15.63;7.13;;;;;;;;;;4999415;28;20022;-77
2022/11/20 06:11:36;;;;;;;16.75;7.43;;;;;;;;;;5017190;28;20040;-75
2022/11/20 06:14:01;;;;;;;16.73;6.72;;;;;;;;;;5016889;28;20390;-75
2022/11/20 06:16:26;;;;;;;17.15;7.65;;;;;;;;;;5016775;28;20021;-76
2022/11/20 06:18:52;;;;;;;18.05;7.65;;;;;;;;;;5016417;28;20029;-76
2022/11/20 06:21:19;;;;;;;16.63;7.15;;;;;;;;;;5016776;28;20022;-76
2022/11/20 06:23:45;;;;;;;15.98;6.35;;;;;;;;;;4998709;28;20387;-77
2022/11/20 06:26:13;;;;;;;16.30;7.55;;;;;;;;;;5016652;28;20033;-77
2022/11/20 06:28:39;;;;;;;17.42;7.07;;;;;;;;;;5016647;28;20479;-77
2022/11/20 06:31:05;;;;;;;15.88;6.70;;;;;;;;;;5016731;28;20040;-77
2022/11/20 06:33:30;;;;;;;17.65;6.25;;;;;;;;;;5016258;28;20105;-77
2022/11/20 06:35:57;;;;;;;17.90;6.53;;;;;;;;;;5016398;28;20087;-77
2022/11/20 06:38:22;;;;;;;14.23;6.05;;;;;;;;;;5016076;28;20494;-79
2022/11/20 06:40:47;;;;;;;14.40;6.70;;;;;;;;;;5016649;28;20040;-78
2022/11/20 06:43:13;;;;;;;16.98;6.95;;;;;;;;;;4998425;28;20080;-77
2022/11/20 06:45:38;;;;;;;17.75;8.02;;;;;;;;;;5016074;28;20498;-77
2022/11/20 06:48:04;;;;;;;15.48;6.65;;;;;;;;;;4998258;28;20025;-77
2022/11/20 06:50:29;;;;;;;15.27;6.22;;;;;;;;;;4998349;28;20034;-77
2022/11/20 06:52:54;;;;;;;17.05;6.95;;;;;;;;;;4998463;28;20025;-78
2022/11/20 06:55:19;;;;;;;18.20;5.95;;;;;;;;;;5015840;28;20021;-77
2022/11/20 06:57:45;;;;;;;15.40;6.78;;;;;;;;;;5015789;28;20491;-77
2022/11/20 07:00:11;;;;;;;16.17;6.97;;;;;;;;;;5015841;28;20025;-78
2022/11/20 07:02:36;;;;;;;14.38;6.85;;;;;;;;;;5015455;28;20056;-77
2022/11/20 07:05:01;;;;;;;13.60;6.78;;;;;;;;;;5015730;28;20113;-77
2022/11/20 07:07:27;;;;;;;17.80;7.25;;;;;;;;;;4998056;28;20041;-77
2022/11/20 07:09:52;;;;;;;18.55;7.30;;;;;;;;;;5015685;28;20026;-77
2022/11/20 07:12:17;;;;;;;18.52;7.28;;;;;;;;;;5015396;28;20076;-77
2022/11/20 07:14:42;;;;;;;15.80;7.38;;;;;;;;;;4998115;28;20025;-78
2022/11/20 07:17:08;;;;;;;17.80;7.75;;;;;;;;;;4997831;28;20441;-77
2022/11/20 07:19:33;;;;;;;18.73;7.22;;;;;;;;;;4997916;28;20028;-77
2022/11/20 07:21:58;;;;;;;19.42;8.43;;;;;;;;;;5015141;28;20434;-77
2022/11/20 07:24:24;;;;;;;19.23;8.13;;;;;;;;;;5015153;28;20026;-76
2022/11/20 07:26:49;;;;;;;18.45;8.07;;;;;;;;;;5015029;28;20049;-76
2022/11/20 07:29:16;;;;;;;21.02;6.88;;;;;;;;;;5015215;28;20033;-77
2022/11/20 07:31:41;;;;;;;19.10;7.30;;;;;;;;;;5015281;28;20022;-78
2022/11/20 07:34:06;;;;;;;19.13;7.30;;;;;;;;;;4997326;28;20534;-77
2022/11/20 07:36:32;;;;;;;21.77;7.63;;;;;;;;;;5015415;28;20045;-78
2022/11/20 07:38:57;;;;;;;20.10;8.55;;;;;;;;;;5015453;28;20029;-78
2022/11/20 07:41:22;;;;;;;23.90;9.60;;;;;;;;;;5015920;28;20486;-76
2022/11/20 07:43:47;;;;;;;21.90;8.80;;;;;;;;;;5014921;28;20029;-77
2022/11/20 07:46:13;;;;;;;17.70;8.43;;;;;;;;;;5014642;28;20022;-78
2022/11/20 07:48:38;;;;;;;19.92;8.73;;;;;;;;;;5015715;28;20028;-78
2022/11/20 07:51:03;;;;;;;18.63;8.85;;;;;;;;;;5015773;28;20494;-76
2022/11/20 07:53:28;;;;;;;17.98;8.77;;;;;;;;;;5014171;28;20036;-77
2022/11/20 07:55:54;;;;;;;17.90;7.55;;;;;;;;;;5014586;28;20053;-75
2022/11/20 07:58:20;;;;;;;14.75;6.40;;;;;;;;;;5014359;28;20022;-76
2022/11/20 08:00:46;;;;;;;20.85;8.80;;;;;;;;;;5014315;28;20606;-77
2022/11/20 08:03:11;;;;;;;22.10;9.38;;;;;;;;;;5014576;28;20108;-77
2022/11/20 08:05:38;;;;;;;20.27;9.13;;;;;;;;;;5015071;28;20054;-77
2022/11/20 08:08:03;;;;;;;21.23;8.52;;;;;;;;;;5015291;28;20049;-78
2022/11/20 08:10:29;;;;;;;22.80;9.80;;;;;;;;;;5014759;28;20034;-78
2022/11/20 08:15:39;;;;;;;22.00;8.02;;;;;;;;;;5014851;28;20029;-76
2022/11/20 08:18:13;;;;;;;21.90;10.13;;;;;;;;;;4996744;28;20100;-77
2022/11/20 08:20:46;;;;;;;22.77;9.85;;;;;;;;;;4998552;28;20101;-78
2022/11/20 08:23:11;;;;;;;22.40;10.63;;;;;;;;;;5014401;28;20092;-78
2022/11/20 08:25:38;;;;;;;20.83;9.27;;;;;;;;;;4997053;28;20472;-77
2022/11/20 08:28:06;;;;;;;21.42;9.68;;;;;;;;;;5015469;28;20064;-77
2022/11/20 08:30:32;;;;;;;17.98;8.50;;;;;;;;;;5015025;28;20436;-77
2022/11/20 08:33:03;;;;;;;20.98;9.75;;;;;;;;;;5014406;28;20022;-78
2022/11/20 08:35:28;;;;;;;23.75;10.18;;;;;;;;;;5014959;28;20075;-78
2022/11/20 08:37:53;;;;;;;20.70;10.05;;;;;;;;;;5015235;28;20112;-77
2022/11/20 08:40:19;;;;;;;22.58;8.95;;;;;;;;;;5014679;28;20022;-77
2022/11/20 08:42:48;;;;;;;18.38;8.68;;;;;;;;;;5014670;28;20022;-77
2022/11/20 08:45:13;;;;;;;25.38;10.48;;;;;;;;;;5013919;28;20053;-77
2022/11/20 08:47:39;;;;;;;25.38;10.35;;;;;;;;;;5013985;28;20375;-77
2022/11/20 08:50:04;;;;;;;27.13;10.63;;;;;;;;;;5014249;28;20032;-78
2022/11/20 08:52:30;;;;;;;25.98;10.48;;;;;;;;;;5013940;28;20028;-77
2022/11/20 08:54:57;;;;;;;21.83;9.57;;;;;;;;;;5014223;28;20386;-76
2022/11/20 08:57:23;;;;;;;27.80;10.85;;;;;;;;;;5013452;28;20041;-76
2022/11/20 08:59:48;;;;;;;21.30;9.43;;;;;;;;;;5013339;28;20449;-77
2022/11/20 09:02:13;;;;;;;22.15;10.20;;;;;;;;;;5013818;28;20029;-77
2022/11/20 09:04:39;;;;;;;24.92;9.77;;;;;;;;;;5016228;28;20414;-76
2022/11/20 09:07:04;;;;;;;23.45;10.10;;;;;;;;;;5013892;28;20026;-77
2022/11/20 09:09:29;;;;;;;22.25;9.02;;;;;;;;;;4996469;28;20568;-78
2022/11/20 09:11:55;;;;;;;24.10;10.23;;;;;;;;;;5012622;28;20105;-75
2022/11/20 09:14:21;;;;;;;25.40;9.85;;;;;;;;;;5013306;28;20371;-75
2022/11/20 09:16:46;;;;;;;22.38;10.80;;;;;;;;;;5012957;28;20033;-77
2022/11/20 09:19:11;;;;;;;26.52;10.00;;;;;;;;;;4995630;28;20395;-75
2022/11/20 09:21:37;;;;;;;19.33;8.68;;;;;;;;;;5012733;28;20045;-76
2022/11/20 09:24:02;;;;;;;22.23;9.27;;;;;;;;;;4995694;28;20484;-77
2022/11/20 09:26:28;;;;;;;19.50;8.85;;;;;;;;;;5012825;28;20021;-75
2022/11/20 09:28:53;;;;;;;20.02;7.93;;;;;;;;;;5015415;28;20395;-79
2022/11/20 09:31:23;;;;;;;20.27;9.43;;;;;;;;;;5014678;28;20026;-79
2022/11/20 09:33:49;;;;;;;17.67;8.43;;;;;;;;;;5013387;28;20018;-77
2022/11/20 09:36:15;;;;;;;19.27;8.43;;;;;;;;;;4995214;28;20025;-76
2022/11/20 09:38:41;;;;;;;20.65;8.85;;;;;;;;;;4995227;28;20048;-77
2022/11/20 09:41:16;;;;;;;19.48;7.75;;;;;;;;;;5013439;28;20072;-76
2022/11/20 09:44:06;;;;;;;20.73;8.80;;;;;;;;;;4995116;28;20033;-76
2022/11/20 09:46:57;;;;;;;13.98;7.13;;;;;;;;;;5013148;28;20021;-76
2022/11/20 09:49:49;;;;;;;13.45;6.80;;;;;;;;;;5006376;28;20034;-78
2022/11/20 09:52:30;;;;;;;14.82;7.35;;;;;;;;;;5015843;28;20029;-78
2022/11/20 09:54:56;;;;;;;12.75;5.85;;;;;;;;;;5014277;28;20026;-78
2022/11/20 09:57:38;;;;;;;17.23;6.72;;;;;;;;;;5013688;28;20057;-77
2022/11/20 10:00:06;;;;;;;15.35;7.38;;;;;;;;;;5014592;28;20052;-79
2022/11/20 10:02:44;;;;;;;16.65;7.65;;;;;;;;;;4996296;28;20030;-77
2022/11/20 10:05:24;;;;;;;16.77;7.32;;;;;;;;;;5013947;28;20054;-78
2022/11/20 10:08:01;;;;;;;12.30;6.05;;;;;;;;;;5015015;28;20112;-76
2022/11/20 10:10:33;;;;;;;12.75;5.80;;;;;;;;;;5014684;28;20029;-78
2022/11/20 10:13:28;;;;;;;12.75;6.22;;;;;;;;;;5015706;28;20057;-78
2022/11/20 10:16:06;;;;;;;14.55;6.40;;;;;;;;;;5014353;28;20034;-77
2022/11/20 10:18:37;;;;;;;14.45;6.53;;;;;;;;;;5014193;28;20091;-78
2022/11/20 10:21:35;;;;;;;13.05;5.78;;;;;;;;;;5012859;28;20033;-78
2022/11/20 10:24:34;;;;;;;13.73;6.53;;;;;;;;;;5018357;28;20061;-78
2022/11/20 10:27:36;;;;;;;9.85;5.03;;;;;;;;;;5017972;28;20446;-79
2022/11/20 10:30:13;;;;;;;13.07;5.32;;;;;;;;;;5019549;28;20410;-78
2022/11/20 10:32:47;;;;;;;12.80;4.88;;;;;;;;;;5017097;28;20080;-77
2022/11/20 10:35:31;;;;;;;;;;;;;;;;;;5001557;28;20029;-78
2022/11/20 10:38:00;;;;;;;11.63;5.63;;;;;;;;;;5019543;28;20007;-78
2022/11/20 10:40:35;;;;;;;12.93;5.53;;;;;;;;;;5018885;28;20034;-77
2022/11/20 10:43:06;;;;;;;13.52;5.93;;;;;;;;;;5018379;28;20058;-77
2022/11/20 10:46:14;;;;;;;12.70;6.30;;;;;;;;;;5018639;28;20036;-78
2022/11/20 10:48:41;;;;;;;12.00;5.40;;;;;;;;;;4959494;29;20027;-78
2022/11/20 10:51:30;;;;;;;9.27;4.68;;;;;;;;;;4958875;29;20110;-78
2022/11/20 10:54:04;;;;;;;9.30;5.10;;;;;;;;;;4983154;28;20509;-78
2022/11/20 10:56:41;;;;;;;8.32;4.25;;;;;;;;;;5020003;28;20037;-78
2022/11/20 10:59:33;;;;;;;9.65;4.93;;;;;;;;;;5020099;28;20041;-78
2022/11/20 11:01:58;;;;;;;10.00;4.55;;;;;;;;;;5019981;28;20475;-78
2022/11/20 11:04:32;;;;;;;11.43;5.75;;;;;;;;;;5019823;28;20030;-77
2022/11/20 11:07:07;;;;;;;11.80;5.80;;;;;;;;;;5018664;28;20037;-77
2022/11/20 11:09:36;;;;;;;14.45;6.88;;;;;;;;;;5018581;28;20076;-78
2022/11/20 11:12:06;;;;;;;16.88;6.82;;;;;;;;;;5019090;28;20022;-77
2022/11/20 11:14:42;;;;;;;11.52;5.60;;;;;;;;;;5018808;28;20022;-78
2022/11/20 11:17:20;;;;;;;11.98;5.65;;;;;;;;;;5018840;28;20022;-78
2022/11/20 11:19:45;;;;;;;11.73;6.03;;;;;;;;;;5021111;28;20037;-79
2022/11/20 11:22:17;;;;;;;15.45;6.10;;;;;;;;;;5019815;28;20026;-78
2022/11/20 11:24:51;;;;;;;11.07;5.32;;;;;;;;;;5018621;28;20032;-77
2022/11/20 11:27:17;;;;;;;12.98;6.05;;;;;;;;;;5017203;28;20106;-77
2022/11/20 11:29:43;;;;;;;13.00;5.55;;;;;;;;;;5016621;28;20025;-77
2022/11/20 11:32:17;;;;;;;11.55;5.53;;;;;;;;;;5017005;28;20030;-78
2022/11/20 11:34:42;;;;;;;;;;;;;;;;;;5017792;28;20033;-77
2022/11/20 11:37:17;;;;;;;11.00;5.35;;;;;;;;;;5019166;28;19920;-79
2022/11/20 11:39:44;;;;;;;13.90;6.20;;;;;;;;;;5019016;28;20025;-78
2022/11/20 11:42:15;;;;;;;13.65;5.85;;;;;;;;;;5018835;28;20022;-78
2022/11/20 11:47:46;;;;;;;13.38;5.78;;;;;;;;;;5018753;28;20510;-79
2022/11/20 11:50:11;;;;;;;12.48;5.88;;;;;;;;;;5018043;28;20029;-78
2022/11/20 11:52:58;;;;;;;12.70;6.27;;;;;;;;;;5018404;28;20069;-78
2022/11/20 11:55:32;;;;;;;10.85;5.15;;;;;;;;;;5016294;28;20248;-78
2022/11/20 11:58:16;;;;;;;11.25;5.72;;;;;;;;;;4998684;28;20030;-79
2022/11/20 12:00:53;;;;;;;9.85;4.88;;;;;;;;;;5016571;28;20034;-79
2022/11/20 12:03:29;;;;;;;11.80;5.65;;;;;;;;;;5016411;28;20559;-79
2022/11/20 12:05:59;;;;;;;7.55;3.53;;;;;;;;;;5000243;28;20029;-78
2022/11/20 12:08:38;;;;;;;7.85;3.92;;;;;;;;;;5018510;28;20037;-78
2022/11/20 12:11:09;;;;;;;8.10;4.38;;;;;;;;;;5021729;28;20163;-78
2022/11/20 12:13:37;;;;;;;7.65;4.30;;;;;;;;;;5020471;28;20033;-80
2022/11/20 12:16:04;;;;;;;8.88;4.40;;;;;;;;;;5019580;28;20250;-79
2022/11/20 12:18:30;;;;;;;9.20;4.28;;;;;;;;;;5019085;28;20021;-80
2022/11/20 12:21:17;;;;;;;7.35;4.22;;;;;;;;;;5019558;28;20022;-79
2022/11/20 12:24:08;;;;;;;8.00;3.80;;;;;;;;;;5018341;28;20068;-80
2022/11/20 12:26:58;;;;;;;9.10;4.05;;;;;;;;;;5014969;28;20050;-80
2022/11/20 12:30:01;;;;;;;7.85;3.95;;;;;;;;;;5018218;28;20521;-79
2022/11/20 12:32:54;;;;;;;11.35;4.45;;;;;;;;;;5018115;28;20026;-81
2022/11/20 12:35:25;;;;;;;8.52;4.25;;;;;;;;;;5000847;28;20065;-79
2022/11/20 12:37:53;;;;;;;8.32;4.32;;;;;;;;;;5018526;28;20056;-81
2022/11/20 12:40:32;;;;;;;8.95;4.38;;;;;;;;;;5018622;28;20041;-79
2022/11/20 12:46:37;;;;;;;8.32;4.05;;;;;;;;;;4987687;28;20026;-80
2022/11/20 12:49:36;;;;;;;10.25;4.93;;;;;;;;;;5004669;28;20041;-79
2022/11/20 12:52:38;;;;;;;9.30;4.47;;;;;;;;;;5018428;28;20029;-78
2022/11/20 12:55:14;;;;;;;7.50;4.00;;;;;;;;;;5018336;28;20083;-78
2022/11/20 12:57:53;;;;;;;8.80;3.90;;;;;;;;;;5018960;28;20021;-79
2022/11/20 13:00:21;;;;;;;9.90;4.95;;;;;;;;;;5000988;28;20022;-80
2022/11/20 13:03:05;;;;;;;8.32;4.45;;;;;;;;;;5018429;28;20057;-80
2022/11/20 13:06:08;;;;;;;9.77;4.80;;;;;;;;;;5018673;28;20049;-80
2022/11/20 13:08:55;;;;;;;10.32;4.22;;;;;;;;;;5018997;28;20029;-79
2022/11/20 13:11:45;;;;;;;5.65;3.45;;;;;;;;;;5001266;28;20053;-78
2022/11/20 13:14:21;;;;;;;10.02;4.60;;;;;;;;;;5019852;28;20021;-81
2022/11/20 13:17:09;;;;;;;8.50;4.43;;;;;;;;;;5019391;28;20050;-79
2022/11/20 13:19:35;;;;;;;9.18;4.35;;;;;;;;;;5018639;28;20038;-79
2022/11/20 13:22:01;;;;;;;6.05;3.40;;;;;;;;;;5018590;28;20458;-79
2022/11/20 13:24:32;;;;;;;9.48;4.38;;;;;;;;;;5019590;28;20476;-79
2022/11/20 13:27:08;;;;;;;7.68;4.30;;;;;;;;;;5001331;28;20026;-80
2022/11/20 13:29:35;;;;;;;8.20;4.03;;;;;;;;;;5017158;28;20026;-79
2022/11/20 13:32:04;;;;;;;9.25;4.40;;;;;;;;;;5017393;28;20131;-80
2022/11/20 13:34:29;;;;;;;8.88;4.40;;;;;;;;;;5017807;28;20085;-79
2022/11/20 13:36:57;;;;;;;9.40;4.60;;;;;;;;;;5018538;28;20479;-79
2022/11/20 13:39:35;;;;;;;8.52;4.07;;;;;;;;;;5000658;28;20026;-80
2022/11/20 13:42:21;;;;;;;9.00;4.57;;;;;;;;;;5016985;28;20109;-79
2022/11/20 13:44:53;;;;;;;9.43;4.78;;;;;;;;;;4999758;28;20069;-81
2022/11/20 13:47:24;;;;;;;8.55;4.35;;;;;;;;;;5018718;28;20018;-80
2022/11/20 13:49:51;;;;;;;7.80;4.18;;;;;;;;;;5026448;28;20036;-80
2022/11/20 13:52:56;;;;;;;6.82;3.53;;;;;;;;;;5013509;28;20018;-79
2022/11/20 13:55:35;;;;;;;7.82;3.80;;;;;;;;;;5012278;28;20022;-79
2022/11/20 13:58:23;;;;;;;6.30;3.28;;;;;;;;;;5028158;28;20415;-79
2022/11/20 14:00:58;;;;;;;6.63;3.85;;;;;;;;;;5031725;28;20030;-80
2022/11/20 14:03:27;;;;;;;7.80;4.20;;;;;;;;;;5034077;28;20040;-79
2022/11/20 14:06:02;;;;;;;8.07;3.97;;;;;;;;;;5031313;28;20085;-78
2022/11/20 14:08:39;;;;;;;6.65;3.72;;;;;;;;;;5033133;28;20049;-80
2022/11/20 14:11:14;;;;;;;9.35;5.13;;;;;;;;;;5034505;28;20032;-80
2022/11/20 14:13:59;;;;;;;7.85;3.63;;;;;;;;;;5030870;28;20026;-78
2022/11/20 14:16:27;;;;;;;6.00;3.13;;;;;;;;;;5018118;28;20017;-79
2022/11/20 14:18:54;;;;;;;6.63;3.72;;;;;;;;;;5034792;28;20029;-79
2022/11/20 14:21:29;;;;;;;6.47;3.28;;;;;;;;;;5033191;28;20194;-80
2022/11/20 14:24:18;;;;;;;6.63;3.88;;;;;;;;;;5033325;28;20044;-79
2022/11/20 14:26:45;;;;;;;7.47;3.65;;;;;;;;;;5035217;28;20029;-79
2022/11/20 14:29:21;;;;;;;5.80;2.92;;;;;;;;;;5034896;28;20423;-79
2022/11/20 14:31:51;;;;;;;8.00;4.10;;;;;;;;;;5032237;28;20033;-80
2022/11/20 14:34:20;;;;;;;7.40;4.22;;;;;;;;;;5008343;28;20416;-79
2022/11/20 14:36:46;;;;;;;9.43;4.50;;;;;;;;;;5002615;28;20034;-78
2022/11/20 14:39:19;;;;;;;7.35;3.63;;;;;;;;;;5003323;28;20455;-79
2022/11/20 14:41:53;;;;;;;9.25;4.20;;;;;;;;;;5020499;28;20057;-79
2022/11/20 14:44:25;;;;;;;;;;;;;;;;;;5002739;28;20133;-79
2022/11/20 14:46:52;;;;;;;6.88;3.47;;;;;;;;;;5019569;28;19927;-79
2022/11/20 14:49:17;;;;;;;7.15;3.90;;;;;;;;;;5019464;28;20029;-79
2022/11/20 14:51:44;;;;;;;8.07;4.35;;;;;;;;;;5020017;28;20041;-80
2022/11/20 14:54:18;;;;;;;8.10;3.78;;;;;;;;;;5001964;28;20068;-79
2022/11/20 14:56:56;;;;;;;;;;;;;;;;;;5020201;28;20034;-79
2022/11/20 14:59:27;;;;;;;8.00;4.35;;;;;;;;;;5018193;28;19909;-80
2022/11/20 15:02:18;;;;;;;8.57;4.95;;;;;;;;;;5001492;28;20018;-79